sensor_id;sensor_type;location;lat;lon;timestamp;P1;durP1;ratioP1;P2;durP2;ratioP2
17251;SDS011;8742;51.716;8.790;2023-03-07T00:01:22;17.23;;;8.50;;
17251;SDS011;8742;51.716;8.790;2023-03-07T00:03:50;18.80;;;8.40;;
17251;SDS011;8742;51.716;8.790;2023-03-07T00:06:18;22.63;;;10.67;;
17251;SDS011;8742;51.716;8.790;2023-03-07T00:08:47;19.83;;;10.00;;
17251;SDS011;8742;51.716;8.790;2023-03-07T00:11:15;22.30;;;9.67;;
17251;SDS011;8742;51.716;8.790;2023-03-07T00:13:42;22.80;;;10.87;;
17251;SDS011;8742;51.716;8.790;2023-03-07T00:16:10;17.70;;;8.30;;
17251;SDS011;8742;51.716;8.790;2023-03-07T00:18:38;18.07;;;9.60;;
17251;SDS011;8742;51.716;8.790;2023-03-07T00:21:06;19.83;;;9.53;;
17251;SDS011;8742;51.716;8.790;2023-03-07T00:23:36;20.13;;;9.77;;
17251;SDS011;8742;51.716;8.790;2023-03-07T00:26:05;20.77;;;9.83;;
17251;SDS011;8742;51.716;8.790;2023-03-07T00:28:33;19.93;;;8.60;;
17251;SDS011;8742;51.716;8.790;2023-03-07T00:31:01;19.23;;;9.03;;
17251;SDS011;8742;51.716;8.790;2023-03-07T00:33:28;15.57;;;7.07;;
17251;SDS011;8742;51.716;8.790;2023-03-07T00:35:56;17.47;;;8.70;;
17251;SDS011;8742;51.716;8.790;2023-03-07T00:38:23;16.53;;;8.83;;
17251;SDS011;8742;51.716;8.790;2023-03-07T00:40:59;17.67;;;8.60;;
17251;SDS011;8742;51.716;8.790;2023-03-07T00:43:27;23.60;;;9.33;;
17251;SDS011;8742;51.716;8.790;2023-03-07T00:45:55;19.40;;;9.77;;
17251;SDS011;8742;51.716;8.790;2023-03-07T00:48:22;15.23;;;6.77;;
17251;SDS011;8742;51.716;8.790;2023-03-07T00:50:49;14.43;;;6.93;;
17251;SDS011;8742;51.716;8.790;2023-03-07T00:53:17;22.03;;;11.07;;
17251;SDS011;8742;51.716;8.790;2023-03-07T00:55:52;18.50;;;9.77;;
17251;SDS011;8742;51.716;8.790;2023-03-07T00:58:21;14.57;;;8.10;;
17251;SDS011;8742;51.716;8.790;2023-03-07T01:00:48;23.00;;;10.53;;
17251;SDS011;8742;51.716;8.790;2023-03-07T01:03:15;18.67;;;9.20;;
17251;SDS011;8742;51.716;8.790;2023-03-07T01:05:42;19.90;;;9.40;;
17251;SDS011;8742;51.716;8.790;2023-03-07T01:08:09;22.17;;;9.97;;
17251;SDS011;8742;51.716;8.790;2023-03-07T01:10:36;18.17;;;9.40;;
17251;SDS011;8742;51.716;8.790;2023-03-07T01:13:03;19.27;;;9.30;;
17251;SDS011;8742;51.716;8.790;2023-03-07T01:15:31;17.77;;;9.23;;
17251;SDS011;8742;51.716;8.790;2023-03-07T01:17:58;20.10;;;9.03;;
17251;SDS011;8742;51.716;8.790;2023-03-07T01:20:25;16.43;;;7.97;;
17251;SDS011;8742;51.716;8.790;2023-03-07T01:22:52;24.13;;;9.70;;
17251;SDS011;8742;51.716;8.790;2023-03-07T01:25:19;16.27;;;8.30;;
17251;SDS011;8742;51.716;8.790;2023-03-07T01:27:46;17.87;;;8.40;;
17251;SDS011;8742;51.716;8.790;2023-03-07T01:30:13;16.30;;;7.87;;
17251;SDS011;8742;51.716;8.790;2023-03-07T01:32:41;17.33;;;8.00;;
17251;SDS011;8742;51.716;8.790;2023-03-07T01:35:08;15.40;;;7.87;;
17251;SDS011;8742;51.716;8.790;2023-03-07T01:37:35;18.33;;;8.23;;
17251;SDS011;8742;51.716;8.790;2023-03-07T01:40:02;8.13;;;4.50;;
17251;SDS011;8742;51.716;8.790;2023-03-07T01:42:31;12.40;;;7.30;;
17251;SDS011;8742;51.716;8.790;2023-03-07T01:45:01;15.10;;;8.03;;
17251;SDS011;8742;51.716;8.790;2023-03-07T01:47:30;16.03;;;7.97;;
17251;SDS011;8742;51.716;8.790;2023-03-07T01:49:59;13.87;;;6.90;;
17251;SDS011;8742;51.716;8.790;2023-03-07T01:52:31;12.40;;;6.60;;
17251;SDS011;8742;51.716;8.790;2023-03-07T01:55:01;11.77;;;5.33;;
17251;SDS011;8742;51.716;8.790;2023-03-07T01:57:31;10.10;;;5.77;;
17251;SDS011;8742;51.716;8.790;2023-03-07T02:00:02;9.87;;;5.90;;
17251;SDS011;8742;51.716;8.790;2023-03-07T02:02:34;10.30;;;5.40;;
17251;SDS011;8742;51.716;8.790;2023-03-07T02:05:05;9.77;;;6.03;;
17251;SDS011;8742;51.716;8.790;2023-03-07T02:07:36;7.63;;;4.67;;
17251;SDS011;8742;51.716;8.790;2023-03-07T02:10:07;9.23;;;5.67;;
17251;SDS011;8742;51.716;8.790;2023-03-07T02:12:37;9.63;;;5.80;;
17251;SDS011;8742;51.716;8.790;2023-03-07T02:15:04;8.30;;;4.50;;
17251;SDS011;8742;51.716;8.790;2023-03-07T02:17:33;10.30;;;5.07;;
17251;SDS011;8742;51.716;8.790;2023-03-07T02:20:02;10.03;;;5.13;;
17251;SDS011;8742;51.716;8.790;2023-03-07T02:22:39;8.83;;;4.57;;
17251;SDS011;8742;51.716;8.790;2023-03-07T02:25:06;8.83;;;4.97;;
17251;SDS011;8742;51.716;8.790;2023-03-07T02:27:41;6.57;;;4.33;;
17251;SDS011;8742;51.716;8.790;2023-03-07T02:30:10;6.43;;;3.57;;
17251;SDS011;8742;51.716;8.790;2023-03-07T02:32:37;5.33;;;3.60;;
17251;SDS011;8742;51.716;8.790;2023-03-07T02:35:09;7.00;;;3.97;;
17251;SDS011;8742;51.716;8.790;2023-03-07T02:37:39;5.03;;;3.47;;
17251;SDS011;8742;51.716;8.790;2023-03-07T02:40:09;6.30;;;3.70;;
17251;SDS011;8742;51.716;8.790;2023-03-07T02:42:41;6.10;;;4.03;;
17251;SDS011;8742;51.716;8.790;2023-03-07T02:45:10;5.13;;;3.53;;
17251;SDS011;8742;51.716;8.790;2023-03-07T02:47:39;4.47;;;3.23;;
17251;SDS011;8742;51.716;8.790;2023-03-07T02:50:07;6.57;;;3.20;;
17251;SDS011;8742;51.716;8.790;2023-03-07T02:52:35;4.53;;;3.23;;
17251;SDS011;8742;51.716;8.790;2023-03-07T02:55:02;4.43;;;3.10;;
17251;SDS011;8742;51.716;8.790;2023-03-07T02:57:29;5.63;;;3.47;;
17251;SDS011;8742;51.716;8.790;2023-03-07T02:59:58;5.77;;;3.83;;
17251;SDS011;8742;51.716;8.790;2023-03-07T03:02:25;6.40;;;3.70;;
17251;SDS011;8742;51.716;8.790;2023-03-07T03:04:51;5.80;;;3.50;;
17251;SDS011;8742;51.716;8.790;2023-03-07T03:07:18;5.37;;;3.43;;
17251;SDS011;8742;51.716;8.790;2023-03-07T03:09:45;4.73;;;3.23;;
17251;SDS011;8742;51.716;8.790;2023-03-07T03:12:12;14.27;;;5.80;;
17251;SDS011;8742;51.716;8.790;2023-03-07T03:14:39;9.27;;;5.43;;
17251;SDS011;8742;51.716;8.790;2023-03-07T03:17:07;6.63;;;4.60;;
17251;SDS011;8742;51.716;8.790;2023-03-07T03:19:33;4.33;;;3.30;;
17251;SDS011;8742;51.716;8.790;2023-03-07T03:22:00;6.50;;;3.73;;
17251;SDS011;8742;51.716;8.790;2023-03-07T03:24:27;4.63;;;3.23;;
17251;SDS011;8742;51.716;8.790;2023-03-07T03:26:54;4.97;;;3.50;;
17251;SDS011;8742;51.716;8.790;2023-03-07T03:29:22;5.60;;;3.93;;
17251;SDS011;8742;51.716;8.790;2023-03-07T03:31:50;5.57;;;3.73;;
17251;SDS011;8742;51.716;8.790;2023-03-07T03:34:18;5.27;;;3.60;;
17251;SDS011;8742;51.716;8.790;2023-03-07T03:36:45;5.00;;;3.60;;
17251;SDS011;8742;51.716;8.790;2023-03-07T03:39:11;5.90;;;3.80;;
17251;SDS011;8742;51.716;8.790;2023-03-07T03:41:40;5.33;;;3.70;;
17251;SDS011;8742;51.716;8.790;2023-03-07T03:44:06;4.93;;;3.80;;
17251;SDS011;8742;51.716;8.790;2023-03-07T03:46:34;4.80;;;3.83;;
17251;SDS011;8742;51.716;8.790;2023-03-07T03:49:01;7.40;;;3.90;;
17251;SDS011;8742;51.716;8.790;2023-03-07T03:51:29;5.73;;;3.80;;
17251;SDS011;8742;51.716;8.790;2023-03-07T03:53:56;5.30;;;4.00;;
17251;SDS011;8742;51.716;8.790;2023-03-07T03:56:23;5.97;;;4.07;;
17251;SDS011;8742;51.716;8.790;2023-03-07T03:58:52;5.50;;;4.27;;
17251;SDS011;8742;51.716;8.790;2023-03-07T04:01:20;6.40;;;4.00;;
17251;SDS011;8742;51.716;8.790;2023-03-07T04:03:50;7.53;;;4.30;;
17251;SDS011;8742;51.716;8.790;2023-03-07T04:06:18;6.73;;;4.30;;
17251;SDS011;8742;51.716;8.790;2023-03-07T04:08:48;6.77;;;4.80;;
17251;SDS011;8742;51.716;8.790;2023-03-07T04:11:16;7.43;;;4.23;;
17251;SDS011;8742;51.716;8.790;2023-03-07T04:13:42;6.97;;;3.77;;
17251;SDS011;8742;51.716;8.790;2023-03-07T04:16:09;6.37;;;3.73;;
17251;SDS011;8742;51.716;8.790;2023-03-07T04:18:36;6.20;;;4.10;;
17251;SDS011;8742;51.716;8.790;2023-03-07T04:21:04;8.23;;;4.57;;
17251;SDS011;8742;51.716;8.790;2023-03-07T04:23:31;6.47;;;4.30;;
17251;SDS011;8742;51.716;8.790;2023-03-07T04:26:00;7.03;;;4.57;;
17251;SDS011;8742;51.716;8.790;2023-03-07T04:28:29;5.97;;;4.20;;
17251;SDS011;8742;51.716;8.790;2023-03-07T04:31:07;5.63;;;3.80;;
17251;SDS011;8742;51.716;8.790;2023-03-07T04:33:34;9.90;;;4.47;;
17251;SDS011;8742;51.716;8.790;2023-03-07T04:36:01;5.43;;;3.83;;
17251;SDS011;8742;51.716;8.790;2023-03-07T04:38:27;6.30;;;4.13;;
17251;SDS011;8742;51.716;8.790;2023-03-07T04:40:54;7.37;;;4.40;;
17251;SDS011;8742;51.716;8.790;2023-03-07T04:43:22;6.53;;;4.13;;
17251;SDS011;8742;51.716;8.790;2023-03-07T04:45:51;9.83;;;4.63;;
17251;SDS011;8742;51.716;8.790;2023-03-07T04:48:18;5.80;;;4.23;;
17251;SDS011;8742;51.716;8.790;2023-03-07T04:50:47;7.03;;;4.73;;
17251;SDS011;8742;51.716;8.790;2023-03-07T04:53:14;6.90;;;4.67;;
17251;SDS011;8742;51.716;8.790;2023-03-07T04:55:41;9.10;;;4.77;;
17251;SDS011;8742;51.716;8.790;2023-03-07T04:58:08;7.27;;;5.10;;
17251;SDS011;8742;51.716;8.790;2023-03-07T05:00:38;7.47;;;5.13;;
17251;SDS011;8742;51.716;8.790;2023-03-07T05:03:05;6.17;;;4.30;;
17251;SDS011;8742;51.716;8.790;2023-03-07T05:05:32;8.03;;;5.20;;
17251;SDS011;8742;51.716;8.790;2023-03-07T05:07:59;8.43;;;4.80;;
17251;SDS011;8742;51.716;8.790;2023-03-07T05:10:27;6.63;;;4.60;;
17251;SDS011;8742;51.716;8.790;2023-03-07T05:12:54;5.97;;;4.27;;
17251;SDS011;8742;51.716;8.790;2023-03-07T05:15:21;6.07;;;4.50;;
17251;SDS011;8742;51.716;8.790;2023-03-07T05:17:49;8.40;;;4.17;;
17251;SDS011;8742;51.716;8.790;2023-03-07T05:20:16;6.00;;;4.07;;
17251;SDS011;8742;51.716;8.790;2023-03-07T05:22:43;7.47;;;4.37;;
17251;SDS011;8742;51.716;8.790;2023-03-07T05:25:10;8.30;;;5.40;;
17251;SDS011;8742;51.716;8.790;2023-03-07T05:27:37;7.67;;;4.80;;
17251;SDS011;8742;51.716;8.790;2023-03-07T05:30:04;5.27;;;4.20;;
17251;SDS011;8742;51.716;8.790;2023-03-07T05:32:32;6.50;;;4.50;;
17251;SDS011;8742;51.716;8.790;2023-03-07T05:35:00;6.07;;;4.47;;
17251;SDS011;8742;51.716;8.790;2023-03-07T05:37:27;4.77;;;3.77;;
17251;SDS011;8742;51.716;8.790;2023-03-07T05:39:54;5.87;;;3.70;;
17251;SDS011;8742;51.716;8.790;2023-03-07T05:42:21;7.67;;;3.63;;
17251;SDS011;8742;51.716;8.790;2023-03-07T05:44:48;6.93;;;4.37;;
17251;SDS011;8742;51.716;8.790;2023-03-07T05:47:14;5.73;;;4.13;;
17251;SDS011;8742;51.716;8.790;2023-03-07T05:49:41;4.73;;;3.77;;
17251;SDS011;8742;51.716;8.790;2023-03-07T05:52:09;7.47;;;4.57;;
17251;SDS011;8742;51.716;8.790;2023-03-07T05:54:36;6.17;;;4.50;;
17251;SDS011;8742;51.716;8.790;2023-03-07T05:57:03;7.77;;;4.60;;
17251;SDS011;8742;51.716;8.790;2023-03-07T05:59:30;9.47;;;5.33;;
17251;SDS011;8742;51.716;8.790;2023-03-07T06:01:56;7.10;;;4.40;;
17251;SDS011;8742;51.716;8.790;2023-03-07T06:04:23;7.03;;;4.97;;
17251;SDS011;8742;51.716;8.790;2023-03-07T06:06:50;8.00;;;5.27;;
17251;SDS011;8742;51.716;8.790;2023-03-07T06:09:18;8.13;;;5.07;;
17251;SDS011;8742;51.716;8.790;2023-03-07T06:11:46;7.33;;;5.13;;
17251;SDS011;8742;51.716;8.790;2023-03-07T06:14:13;9.47;;;5.57;;
17251;SDS011;8742;51.716;8.790;2023-03-07T06:16:39;9.27;;;5.93;;
17251;SDS011;8742;51.716;8.790;2023-03-07T06:19:06;11.63;;;5.87;;
17251;SDS011;8742;51.716;8.790;2023-03-07T06:21:33;8.93;;;5.60;;
17251;SDS011;8742;51.716;8.790;2023-03-07T06:24:00;9.43;;;5.87;;
17251;SDS011;8742;51.716;8.790;2023-03-07T06:26:28;7.97;;;5.03;;
17251;SDS011;8742;51.716;8.790;2023-03-07T06:28:55;12.37;;;5.70;;
17251;SDS011;8742;51.716;8.790;2023-03-07T06:31:22;8.93;;;5.50;;
17251;SDS011;8742;51.716;8.790;2023-03-07T06:33:49;10.60;;;5.80;;
17251;SDS011;8742;51.716;8.790;2023-03-07T06:36:18;13.77;;;8.33;;
17251;SDS011;8742;51.716;8.790;2023-03-07T06:38:45;11.27;;;6.87;;
17251;SDS011;8742;51.716;8.790;2023-03-07T06:41:12;9.97;;;6.20;;
17251;SDS011;8742;51.716;8.790;2023-03-07T06:43:41;9.47;;;6.30;;
17251;SDS011;8742;51.716;8.790;2023-03-07T06:46:07;10.70;;;5.87;;
17251;SDS011;8742;51.716;8.790;2023-03-07T06:48:34;10.00;;;6.37;;
17251;SDS011;8742;51.716;8.790;2023-03-07T06:51:04;10.50;;;6.47;;
17251;SDS011;8742;51.716;8.790;2023-03-07T06:53:32;10.27;;;6.03;;
17251;SDS011;8742;51.716;8.790;2023-03-07T06:55:59;9.83;;;6.40;;
17251;SDS011;8742;51.716;8.790;2023-03-07T06:58:25;12.17;;;6.30;;
17251;SDS011;8742;51.716;8.790;2023-03-07T07:00:54;10.17;;;6.30;;
17251;SDS011;8742;51.716;8.790;2023-03-07T07:03:21;10.23;;;6.50;;
17251;SDS011;8742;51.716;8.790;2023-03-07T07:05:47;9.43;;;6.13;;
17251;SDS011;8742;51.716;8.790;2023-03-07T07:08:14;8.10;;;5.87;;
17251;SDS011;8742;51.716;8.790;2023-03-07T07:10:41;13.00;;;6.90;;
17251;SDS011;8742;51.716;8.790;2023-03-07T07:13:08;11.17;;;6.77;;
17251;SDS011;8742;51.716;8.790;2023-03-07T07:15:36;10.47;;;6.47;;
17251;SDS011;8742;51.716;8.790;2023-03-07T07:18:04;8.50;;;5.27;;
17251;SDS011;8742;51.716;8.790;2023-03-07T07:20:31;9.17;;;6.07;;
17251;SDS011;8742;51.716;8.790;2023-03-07T07:22:58;7.57;;;5.20;;
17251;SDS011;8742;51.716;8.790;2023-03-07T07:25:25;12.67;;;5.80;;
17251;SDS011;8742;51.716;8.790;2023-03-07T07:27:52;8.33;;;5.43;;
17251;SDS011;8742;51.716;8.790;2023-03-07T07:30:18;8.33;;;5.03;;
17251;SDS011;8742;51.716;8.790;2023-03-07T07:32:45;9.87;;;5.67;;
17251;SDS011;8742;51.716;8.790;2023-03-07T07:35:13;8.37;;;5.10;;
17251;SDS011;8742;51.716;8.790;2023-03-07T07:37:40;6.80;;;4.70;;
17251;SDS011;8742;51.716;8.790;2023-03-07T07:40:08;6.53;;;4.47;;
17251;SDS011;8742;51.716;8.790;2023-03-07T07:42:35;12.97;;;7.27;;
17251;SDS011;8742;51.716;8.790;2023-03-07T07:45:03;8.97;;;5.87;;
17251;SDS011;8742;51.716;8.790;2023-03-07T07:47:31;8.00;;;5.53;;
17251;SDS011;8742;51.716;8.790;2023-03-07T07:49:57;7.60;;;4.90;;
17251;SDS011;8742;51.716;8.790;2023-03-07T07:52:26;5.33;;;4.07;;
17251;SDS011;8742;51.716;8.790;2023-03-07T07:54:52;5.57;;;3.90;;
17251;SDS011;8742;51.716;8.790;2023-03-07T07:57:19;5.80;;;3.90;;
17251;SDS011;8742;51.716;8.790;2023-03-07T07:59:46;6.40;;;4.17;;
17251;SDS011;8742;51.716;8.790;2023-03-07T08:02:13;5.17;;;4.00;;
17251;SDS011;8742;51.716;8.790;2023-03-07T08:04:39;6.23;;;4.73;;
17251;SDS011;8742;51.716;8.790;2023-03-07T08:07:06;7.70;;;4.70;;
17251;SDS011;8742;51.716;8.790;2023-03-07T08:09:35;6.90;;;4.20;;
17251;SDS011;8742;51.716;8.790;2023-03-07T08:12:03;5.17;;;3.90;;
17251;SDS011;8742;51.716;8.790;2023-03-07T08:14:31;4.13;;;3.67;;
17251;SDS011;8742;51.716;8.790;2023-03-07T08:16:58;6.87;;;4.43;;
17251;SDS011;8742;51.716;8.790;2023-03-07T08:19:25;8.83;;;4.27;;
17251;SDS011;8742;51.716;8.790;2023-03-07T08:21:52;5.60;;;4.20;;
17251;SDS011;8742;51.716;8.790;2023-03-07T08:24:18;5.30;;;4.37;;
17251;SDS011;8742;51.716;8.790;2023-03-07T08:26:47;7.43;;;4.50;;
17251;SDS011;8742;51.716;8.790;2023-03-07T08:29:13;6.53;;;4.70;;
17251;SDS011;8742;51.716;8.790;2023-03-07T08:31:41;10.50;;;5.97;;
17251;SDS011;8742;51.716;8.790;2023-03-07T08:34:08;8.67;;;5.50;;
17251;SDS011;8742;51.716;8.790;2023-03-07T08:36:35;11.07;;;6.97;;
17251;SDS011;8742;51.716;8.790;2023-03-07T08:39:03;6.70;;;4.83;;
17251;SDS011;8742;51.716;8.790;2023-03-07T08:41:30;8.53;;;4.83;;
17251;SDS011;8742;51.716;8.790;2023-03-07T08:43:58;7.37;;;5.23;;
17251;SDS011;8742;51.716;8.790;2023-03-07T08:46:25;6.97;;;4.10;;
17251;SDS011;8742;51.716;8.790;2023-03-07T08:48:52;7.53;;;4.73;;
17251;SDS011;8742;51.716;8.790;2023-03-07T08:51:19;7.30;;;4.77;;
17251;SDS011;8742;51.716;8.790;2023-03-07T08:53:45;11.50;;;5.43;;
17251;SDS011;8742;51.716;8.790;2023-03-07T08:56:13;6.70;;;4.60;;
17251;SDS011;8742;51.716;8.790;2023-03-07T08:58:44;7.70;;;4.63;;
17251;SDS011;8742;51.716;8.790;2023-03-07T09:01:13;5.63;;;4.23;;
17251;SDS011;8742;51.716;8.790;2023-03-07T09:03:39;9.47;;;4.03;;
17251;SDS011;8742;51.716;8.790;2023-03-07T09:06:10;5.43;;;3.83;;
17251;SDS011;8742;51.716;8.790;2023-03-07T09:08:42;7.80;;;4.20;;
17251;SDS011;8742;51.716;8.790;2023-03-07T09:11:09;5.87;;;3.90;;
17251;SDS011;8742;51.716;8.790;2023-03-07T09:13:35;7.70;;;4.67;;
17251;SDS011;8742;51.716;8.790;2023-03-07T09:16:03;7.40;;;4.10;;
17251;SDS011;8742;51.716;8.790;2023-03-07T09:18:32;7.73;;;4.30;;
17251;SDS011;8742;51.716;8.790;2023-03-07T09:21:00;7.73;;;4.60;;
17251;SDS011;8742;51.716;8.790;2023-03-07T09:23:27;8.73;;;4.20;;
17251;SDS011;8742;51.716;8.790;2023-03-07T09:25:57;8.87;;;3.73;;
17251;SDS011;8742;51.716;8.790;2023-03-07T09:28:24;8.23;;;4.27;;
17251;SDS011;8742;51.716;8.790;2023-03-07T09:30:51;7.13;;;3.53;;
17251;SDS011;8742;51.716;8.790;2023-03-07T09:33:18;4.70;;;3.37;;
17251;SDS011;8742;51.716;8.790;2023-03-07T09:35:47;4.77;;;3.67;;
17251;SDS011;8742;51.716;8.790;2023-03-07T09:38:14;4.40;;;3.23;;
17251;SDS011;8742;51.716;8.790;2023-03-07T09:40:42;6.43;;;4.27;;
17251;SDS011;8742;51.716;8.790;2023-03-07T09:43:14;5.97;;;3.57;;
17251;SDS011;8742;51.716;8.790;2023-03-07T09:45:50;5.00;;;3.27;;
17251;SDS011;8742;51.716;8.790;2023-03-07T09:48:33;4.53;;;2.90;;
17251;SDS011;8742;51.716;8.790;2023-03-07T09:51:20;5.27;;;3.00;;
17251;SDS011;8742;51.716;8.790;2023-03-07T09:53:50;5.03;;;3.17;;
17251;SDS011;8742;51.716;8.790;2023-03-07T09:56:21;5.00;;;3.23;;
17251;SDS011;8742;51.716;8.790;2023-03-07T09:58:52;6.30;;;3.50;;
17251;SDS011;8742;51.716;8.790;2023-03-07T10:01:25;4.97;;;3.70;;
17251;SDS011;8742;51.716;8.790;2023-03-07T10:03:57;4.73;;;3.30;;
17251;SDS011;8742;51.716;8.790;2023-03-07T10:06:28;3.63;;;2.60;;
17251;SDS011;8742;51.716;8.790;2023-03-07T10:08:58;4.47;;;2.70;;
17251;SDS011;8742;51.716;8.790;2023-03-07T10:11:34;3.70;;;2.83;;
17251;SDS011;8742;51.716;8.790;2023-03-07T10:14:21;3.83;;;2.63;;
17251;SDS011;8742;51.716;8.790;2023-03-07T10:17:09;5.27;;;3.57;;
17251;SDS011;8742;51.716;8.790;2023-03-07T10:19:47;4.43;;;3.03;;
17251;SDS011;8742;51.716;8.790;2023-03-07T10:22:19;5.00;;;2.90;;
17251;SDS011;8742;51.716;8.790;2023-03-07T10:25:03;5.43;;;2.67;;
17251;SDS011;8742;51.716;8.790;2023-03-07T10:27:37;4.10;;;2.80;;
17251;SDS011;8742;51.716;8.790;2023-03-07T10:30:07;4.47;;;2.43;;
17251;SDS011;8742;51.716;8.790;2023-03-07T10:32:40;6.77;;;2.80;;
17251;SDS011;8742;51.716;8.790;2023-03-07T10:35:15;4.80;;;3.70;;
17251;SDS011;8742;51.716;8.790;2023-03-07T10:37:47;4.13;;;3.23;;
17251;SDS011;8742;51.716;8.790;2023-03-07T10:40:17;3.77;;;2.47;;
17251;SDS011;8742;51.716;8.790;2023-03-07T10:42:50;3.80;;;2.73;;
17251;SDS011;8742;51.716;8.790;2023-03-07T10:45:18;5.17;;;3.30;;
17251;SDS011;8742;51.716;8.790;2023-03-07T10:47:45;5.70;;;3.60;;
17251;SDS011;8742;51.716;8.790;2023-03-07T10:50:19;6.73;;;3.10;;
17251;SDS011;8742;51.716;8.790;2023-03-07T10:52:53;5.37;;;3.37;;
17251;SDS011;8742;51.716;8.790;2023-03-07T10:55:29;6.00;;;3.20;;
17251;SDS011;8742;51.716;8.790;2023-03-07T10:58:19;4.80;;;3.07;;
17251;SDS011;8742;51.716;8.790;2023-03-07T11:03:43;3.67;;;3.00;;
17251;SDS011;8742;51.716;8.790;2023-03-07T11:09:07;5.17;;;3.10;;
17251;SDS011;8742;51.716;8.790;2023-03-07T11:11:38;4.37;;;3.07;;
17251;SDS011;8742;51.716;8.790;2023-03-07T11:14:11;5.83;;;3.30;;
17251;SDS011;8742;51.716;8.790;2023-03-07T11:16:39;7.67;;;4.33;;
17251;SDS011;8742;51.716;8.790;2023-03-07T11:22:23;6.27;;;3.77;;
17251;SDS011;8742;51.716;8.790;2023-03-07T11:24:55;5.93;;;3.80;;
17251;SDS011;8742;51.716;8.790;2023-03-07T11:27:25;6.43;;;3.53;;
17251;SDS011;8742;51.716;8.790;2023-03-07T11:30:04;3.40;;;3.10;;
17251;SDS011;8742;51.716;8.790;2023-03-07T11:32:33;6.70;;;3.43;;
17251;SDS011;8742;51.716;8.790;2023-03-07T11:35:04;6.03;;;3.23;;
17251;SDS011;8742;51.716;8.790;2023-03-07T11:37:37;4.80;;;3.17;;
17251;SDS011;8742;51.716;8.790;2023-03-07T11:40:16;4.50;;;3.27;;
17251;SDS011;8742;51.716;8.790;2023-03-07T11:42:48;8.53;;;3.10;;
17251;SDS011;8742;51.716;8.790;2023-03-07T11:45:31;5.03;;;3.43;;
17251;SDS011;8742;51.716;8.790;2023-03-07T11:48:11;7.77;;;4.20;;
17251;SDS011;8742;51.716;8.790;2023-03-07T11:50:46;7.83;;;3.73;;
17251;SDS011;8742;51.716;8.790;2023-03-07T11:53:21;8.53;;;3.83;;
17251;SDS011;8742;51.716;8.790;2023-03-07T11:56:09;5.30;;;3.50;;
17251;SDS011;8742;51.716;8.790;2023-03-07T11:58:48;5.30;;;3.33;;
17251;SDS011;8742;51.716;8.790;2023-03-07T12:01:36;4.27;;;3.27;;
17251;SDS011;8742;51.716;8.790;2023-03-07T12:07:07;9.50;;;4.37;;
17251;SDS011;8742;51.716;8.790;2023-03-07T12:09:43;7.70;;;4.03;;
17251;SDS011;8742;51.716;8.790;2023-03-07T12:12:27;6.43;;;4.10;;
17251;SDS011;8742;51.716;8.790;2023-03-07T12:15:06;7.10;;;4.33;;
17251;SDS011;8742;51.716;8.790;2023-03-07T12:17:56;5.70;;;3.90;;
17251;SDS011;8742;51.716;8.790;2023-03-07T12:20:43;6.13;;;4.10;;
17251;SDS011;8742;51.716;8.790;2023-03-07T12:23:20;6.07;;;4.10;;
17251;SDS011;8742;51.716;8.790;2023-03-07T12:25:51;6.33;;;3.97;;
17251;SDS011;8742;51.716;8.790;2023-03-07T12:28:23;9.53;;;4.27;;
17251;SDS011;8742;51.716;8.790;2023-03-07T12:30:56;6.47;;;4.13;;
17251;SDS011;8742;51.716;8.790;2023-03-07T12:33:29;7.10;;;4.70;;
17251;SDS011;8742;51.716;8.790;2023-03-07T12:36:14;6.47;;;4.13;;
17251;SDS011;8742;51.716;8.790;2023-03-07T12:38:48;6.80;;;4.20;;
17251;SDS011;8742;51.716;8.790;2023-03-07T12:41:22;3.73;;;3.00;;
17251;SDS011;8742;51.716;8.790;2023-03-07T12:44:09;6.83;;;4.20;;
17251;SDS011;8742;51.716;8.790;2023-03-07T12:46:43;5.50;;;3.73;;
17251;SDS011;8742;51.716;8.790;2023-03-07T12:49:15;6.57;;;4.40;;
17251;SDS011;8742;51.716;8.790;2023-03-07T12:51:49;7.47;;;4.70;;
17251;SDS011;8742;51.716;8.790;2023-03-07T12:54:20;5.97;;;3.93;;
17251;SDS011;8742;51.716;8.790;2023-03-07T12:56:53;6.90;;;3.83;;
17251;SDS011;8742;51.716;8.790;2023-03-07T12:59:26;4.60;;;3.23;;
17251;SDS011;8742;51.716;8.790;2023-03-07T13:01:57;6.03;;;3.50;;
17251;SDS011;8742;51.716;8.790;2023-03-07T13:04:28;4.70;;;3.30;;
17251;SDS011;8742;51.716;8.790;2023-03-07T13:07:00;3.93;;;2.73;;
17251;SDS011;8742;51.716;8.790;2023-03-07T13:09:33;5.43;;;2.77;;
17251;SDS011;8742;51.716;8.790;2023-03-07T13:12:08;6.20;;;3.03;;
17251;SDS011;8742;51.716;8.790;2023-03-07T13:14:56;3.13;;;2.30;;
17251;SDS011;8742;51.716;8.790;2023-03-07T13:25:58;5.17;;;2.43;;
17251;SDS011;8742;51.716;8.790;2023-03-07T13:28:47;4.73;;;2.50;;
17251;SDS011;8742;51.716;8.790;2023-03-07T13:40:24;4.23;;;2.30;;
17251;SDS011;8742;51.716;8.790;2023-03-07T13:45:59;2.63;;;2.00;;
17251;SDS011;8742;51.716;8.790;2023-03-07T13:51:27;3.70;;;3.10;;
17251;SDS011;8742;51.716;8.790;2023-03-07T13:53:55;2.90;;;2.63;;
17251;SDS011;8742;51.716;8.790;2023-03-07T13:56:27;3.27;;;2.47;;
17251;SDS011;8742;51.716;8.790;2023-03-07T13:58:56;5.13;;;2.90;;
17251;SDS011;8742;51.716;8.790;2023-03-07T14:01:26;4.00;;;2.63;;
17251;SDS011;8742;51.716;8.790;2023-03-07T14:03:58;5.57;;;3.00;;
17251;SDS011;8742;51.716;8.790;2023-03-07T14:06:33;3.30;;;2.50;;
17251;SDS011;8742;51.716;8.790;2023-03-07T14:09:04;4.47;;;2.60;;
17251;SDS011;8742;51.716;8.790;2023-03-07T14:11:38;2.93;;;2.30;;
17251;SDS011;8742;51.716;8.790;2023-03-07T14:14:18;4.17;;;2.37;;
17251;SDS011;8742;51.716;8.790;2023-03-07T14:16:57;3.53;;;2.33;;
17251;SDS011;8742;51.716;8.790;2023-03-07T14:19:39;6.87;;;2.80;;
17251;SDS011;8742;51.716;8.790;2023-03-07T14:22:16;5.67;;;2.73;;
17251;SDS011;8742;51.716;8.790;2023-03-07T14:24:51;5.80;;;3.13;;
17251;SDS011;8742;51.716;8.790;2023-03-07T14:27:29;6.57;;;2.90;;
17251;SDS011;8742;51.716;8.790;2023-03-07T14:29:57;5.93;;;3.40;;
17251;SDS011;8742;51.716;8.790;2023-03-07T14:32:25;7.10;;;4.07;;
17251;SDS011;8742;51.716;8.790;2023-03-07T14:34:55;3.47;;;2.87;;
17251;SDS011;8742;51.716;8.790;2023-03-07T14:37:23;5.97;;;3.53;;
17251;SDS011;8742;51.716;8.790;2023-03-07T14:39:56;5.17;;;3.50;;
17251;SDS011;8742;51.716;8.790;2023-03-07T14:42:33;3.23;;;2.70;;
17251;SDS011;8742;51.716;8.790;2023-03-07T14:45:13;3.27;;;2.63;;
17251;SDS011;8742;51.716;8.790;2023-03-07T14:47:55;5.07;;;3.80;;
17251;SDS011;8742;51.716;8.790;2023-03-07T14:50:32;6.20;;;3.17;;
17251;SDS011;8742;51.716;8.790;2023-03-07T14:53:04;13.50;;;7.50;;
17251;SDS011;8742;51.716;8.790;2023-03-07T14:55:39;4.43;;;3.13;;
17251;SDS011;8742;51.716;8.790;2023-03-07T14:58:13;5.37;;;2.93;;
17251;SDS011;8742;51.716;8.790;2023-03-07T15:00:42;8.37;;;4.50;;
17251;SDS011;8742;51.716;8.790;2023-03-07T15:03:10;4.87;;;3.40;;
17251;SDS011;8742;51.716;8.790;2023-03-07T15:05:47;5.97;;;2.90;;
17251;SDS011;8742;51.716;8.790;2023-03-07T15:08:18;7.30;;;2.80;;
17251;SDS011;8742;51.716;8.790;2023-03-07T15:10:48;6.20;;;2.47;;
17251;SDS011;8742;51.716;8.790;2023-03-07T15:13:19;4.33;;;2.60;;
17251;SDS011;8742;51.716;8.790;2023-03-07T15:15:51;4.73;;;2.87;;
17251;SDS011;8742;51.716;8.790;2023-03-07T15:18:23;8.73;;;3.23;;
17251;SDS011;8742;51.716;8.790;2023-03-07T15:20:54;5.17;;;2.77;;
17251;SDS011;8742;51.716;8.790;2023-03-07T15:23:23;9.07;;;3.83;;
17251;SDS011;8742;51.716;8.790;2023-03-07T15:25:54;9.67;;;4.53;;
17251;SDS011;8742;51.716;8.790;2023-03-07T15:28:26;18.03;;;6.07;;
17251;SDS011;8742;51.716;8.790;2023-03-07T15:30:57;5.67;;;3.17;;
17251;SDS011;8742;51.716;8.790;2023-03-07T15:33:24;9.73;;;4.07;;
17251;SDS011;8742;51.716;8.790;2023-03-07T15:36:07;6.70;;;3.50;;
17251;SDS011;8742;51.716;8.790;2023-03-07T15:38:43;9.03;;;4.20;;
17251;SDS011;8742;51.716;8.790;2023-03-07T15:41:24;5.97;;;3.90;;
17251;SDS011;8742;51.716;8.790;2023-03-07T15:44:04;6.03;;;3.20;;
17251;SDS011;8742;51.716;8.790;2023-03-07T15:46:41;9.43;;;4.17;;
17251;SDS011;8742;51.716;8.790;2023-03-07T15:49:13;8.00;;;3.93;;
17251;SDS011;8742;51.716;8.790;2023-03-07T15:51:50;13.63;;;5.30;;